createdAt,value
2023-03-07T00:02:00.183Z,98.00
2023-03-07T00:12:05.447Z,100.53
2023-03-07T00:22:08.822Z,102.13
2023-03-07T00:32:13.607Z,107.40
2023-03-07T00:42:17.248Z,105.53
2023-03-07T00:52:22.030Z,103.90
2023-03-07T01:02:25.533Z,100.40
2023-03-07T01:12:30.295Z,93.67
2023-03-07T01:22:33.955Z,91.13
2023-03-07T01:32:38.825Z,94.63
2023-03-07T01:42:42.648Z,98.33
2023-03-07T01:52:50.731Z,99.80
2023-03-07T02:03:05.465Z,93.73
2023-03-07T02:13:12.384Z,92.23
2023-03-07T02:23:26.419Z,94.00
2023-03-07T02:33:32.017Z,90.83
2023-03-07T02:43:40.185Z,92.83
2023-03-07T02:53:46.294Z,92.07
2023-03-07T03:03:50.119Z,91.43
2023-03-07T03:13:55.005Z,90.07
2023-03-07T03:23:58.891Z,91.37
2023-03-07T03:34:05.207Z,93.63
2023-03-07T03:44:10.131Z,90.87
2023-03-07T03:54:15.165Z,91.47
2023-03-07T04:04:19.238Z,89.47
2023-03-07T04:14:24.604Z,91.60
2023-03-07T04:24:28.802Z,88.97
2023-03-07T04:34:33.799Z,93.90
2023-03-07T04:44:37.353Z,89.13
2023-03-07T04:54:42.242Z,90.33
2023-03-07T05:04:45.954Z,91.83
2023-03-07T05:14:51.083Z,88.37
2023-03-07T05:24:54.662Z,89.53
2023-03-07T05:35:00.188Z,88.23
2023-03-07T05:45:05.765Z,90.60
2023-03-07T05:55:11.724Z,89.27
2023-03-07T06:05:15.373Z,91.33
2023-03-07T06:15:24.615Z,91.10
2023-03-07T06:25:34.265Z,89.10
2023-03-07T06:35:43.275Z,90.80
2023-03-07T06:45:47.428Z,92.90
2023-03-07T06:55:54.062Z,95.27
2023-03-07T07:05:57.576Z,93.93
2023-03-07T07:16:07.341Z,93.90
2023-03-07T07:26:12.704Z,95.90
2023-03-07T07:36:17.546Z,96.57
2023-03-07T07:46:21.466Z,104.67
2023-03-07T07:56:26.843Z,100.20
2023-03-07T08:06:30.865Z,99.97
2023-03-07T08:16:35.755Z,107.10
2023-03-07T08:26:39.384Z,111.73
2023-03-07T08:36:44.401Z,104.90
2023-03-07T08:46:47.919Z,104.17
2023-03-07T08:56:52.740Z,109.40
2023-03-07T09:06:56.828Z,107.83
2023-03-07T09:17:01.856Z,96.33
2023-03-07T09:27:05.419Z,97.73
2023-03-07T09:37:10.268Z,95.90
2023-03-07T09:47:36.275Z,96.17
2023-03-07T09:57:50.303Z,95.77
2023-03-07T10:07:56.156Z,101.40
2023-03-07T10:18:18.314Z,96.70
2023-03-07T10:28:26.175Z,94.07
2023-03-07T10:38:38.771Z,94.07
2023-03-07T10:48:47.327Z,92.87
2023-03-07T10:59:04.390Z,91.13
2023-03-07T11:09:17.949Z,90.23
2023-03-07T11:19:45.360Z,88.60
2023-03-07T11:30:18.098Z,91.30
2023-03-07T11:40:28.455Z,95.67
2023-03-07T11:50:33.839Z,95.67
2023-03-07T12:00:53.843Z,96.10
2023-03-07T12:11:15.627Z,91.23
2023-03-07T12:21:41.863Z,91.03
2023-03-07T12:31:49.729Z,92.13
2023-03-07T12:42:05.666Z,93.80
2023-03-07T12:52:19.441Z,93.47
2023-03-07T13:02:30.754Z,92.30
2023-03-07T13:12:36.301Z,94.27
2023-03-07T13:23:02.244Z,94.63
2023-03-07T13:33:26.626Z,95.63
2023-03-07T13:44:02.809Z,97.87
2023-03-07T13:54:12.849Z,95.50
2023-03-07T14:04:38.311Z,112.60
2023-03-07T14:15:09.364Z,97.60
2023-03-07T14:25:19.610Z,95.07
2023-03-07T14:35:38.454Z,105.07
2023-03-07T14:45:47.401Z,105.00
2023-03-07T14:55:53.987Z,94.93
2023-03-07T15:06:01.255Z,128.87
2023-03-07T15:16:09.147Z,106.90
2023-03-07T15:26:21.260Z,94.60
2023-03-07T15:36:27.792Z,92.03
2023-03-07T15:46:34.117Z,92.57
2023-03-07T15:56:38.172Z,102.03
2023-03-07T16:06:45.294Z,89.77
2023-03-07T16:16:49.129Z,89.50
2023-03-07T16:26:53.970Z,88.87
2023-03-07T16:36:57.465Z,91.93
2023-03-07T16:47:09.225Z,93.47
2023-03-07T16:57:16.364Z,87.67
2023-03-07T17:07:23.509Z,89.80
2023-03-07T17:17:33.181Z,93.47
2023-03-07T17:27:43.095Z,93.00
2023-03-07T17:37:48.034Z,85.97
2023-03-07T17:47:54.381Z,89.70
2023-03-07T17:57:57.789Z,91.10
2023-03-07T18:08:05.066Z,89.83
2023-03-07T18:18:08.554Z,92.50
2023-03-07T18:28:13.773Z,92.07
2023-03-07T18:38:18.323Z,96.27
2023-03-07T18:48:23.167Z,92.87
2023-03-07T18:58:26.786Z,94.53
2023-03-07T19:08:31.743Z,96.37
2023-03-07T19:18:36.848Z,94.87
2023-03-07T19:28:42.196Z,97.77
2023-03-07T19:38:47.941Z,93.27
2023-03-07T19:48:52.807Z,93.93
2023-03-07T19:58:58.848Z,93.80
2023-03-07T20:09:03.661Z,93.20
2023-03-07T20:19:09.697Z,105.83
2023-03-07T20:29:15.169Z,91.53
2023-03-07T20:39:18.646Z,96.20
2023-03-07T20:49:24.749Z,93.27
2023-03-07T20:59:28.303Z,87.13
2023-03-07T21:09:33.235Z,89.07
2023-03-07T21:19:37.036Z,87.67
2023-03-07T21:29:41.981Z,85.83
2023-03-07T21:39:45.734Z,86.13
2023-03-07T21:49:50.546Z,91.17
2023-03-07T21:59:54.004Z,87.63
2023-03-07T22:09:58.870Z,85.97
2023-03-07T22:20:02.425Z,88.23
2023-03-07T22:30:09.702Z,88.23
2023-03-07T22:40:14.544Z,88.03
2023-03-07T22:50:48.396Z,85.63
2023-03-07T23:00:52.434Z,87.80
2023-03-07T23:11:04.985Z,85.37
2023-03-07T23:21:11.110Z,90.70
2023-03-07T23:31:22.113Z,89.43
2023-03-07T23:41:26.352Z,88.00
2023-03-07T23:51:31.176Z,85.63
